Time;durP1;ratioP1;P1;durP2;ratioP2;P2;SDS_P1;SDS_P2;PMS_P1;PMS_P2;Temp;Humidity;BMP_temperature;BMP_pressure;BME280_temperature;BME280_humidity;BME280_pressure;Samples;Min_cycle;Max_cycle;Signal;HPM_P1;HPM_P2
2021/01/09 00:01:19;;;;;;;87.85;41.83;;;;;;;0.53;93.83;100526.31;1787508;80;21152;-80
2021/01/09 00:03:45;;;;;;;79.42;36.90;;;;;;;0.53;93.82;100523.19;1787582;80;21633;-80
2021/01/09 00:06:11;;;;;;;89.13;40.63;;;;;;;0.53;93.84;100515.81;1787242;80;21211;-80
2021/01/09 00:08:38;;;;;;;87.42;39.42;;;;;;;0.53;93.83;100527.12;1786100;80;21205;-80
2021/01/09 00:11:04;;;;;;;89.65;41.70;;;;;;;0.51;93.82;100523.77;1774995;80;21605;-81
2021/01/09 00:13:31;;;;;;;115.67;50.23;;;;;;;0.55;93.80;100521.31;1758682;80;21208;-80
2021/01/09 00:15:58;;;;;;;114.77;46.65;;;;;;;0.54;93.83;100522.72;1751091;81;21212;-80
2021/01/09 00:18:24;;;;;;;107.90;43.23;;;;;;;0.52;93.81;100526.77;1748298;81;21215;-81
2021/01/09 00:20:50;;;;;;;94.83;44.75;;;;;;;0.49;93.82;100527.80;1774336;80;21188;-77
2021/01/09 00:23:17;;;;;;;99.47;43.83;;;;;;;0.46;93.80;100521.45;1732662;82;21195;-80
2021/01/09 00:25:43;;;;;;;104.23;45.28;;;;;;;0.48;93.81;100528.77;1756741;80;21700;-80
2021/01/09 00:28:09;;;;;;;94.92;45.33;;;;;;;0.47;93.81;100521.83;1726405;82;21163;-83
2021/01/09 00:30:38;;;;;;;89.42;41.35;;;;;;;0.46;93.80;100521.45;1740696;81;21623;-83
2021/01/09 00:33:04;;;;;;;117.80;59.77;;;;;;;0.46;93.81;100526.70;1774937;80;21763;-83
2021/01/09 00:35:31;;;;;;;132.03;63.30;;;;;;;0.47;93.82;100524.92;1765590;80;21220;-83
2021/01/09 00:37:57;;;;;;;114.35;58.95;;;;;;;0.46;93.79;100529.32;1711004;83;21695;-84
2021/01/09 00:40:23;;;;;;;92.25;44.20;;;;;;;0.45;93.80;100534.22;1728590;83;21605;-84
2021/01/09 00:42:50;;;;;;;106.85;43.48;;;;;;;0.44;93.79;100536.47;1740746;82;21212;-84
2021/01/09 00:45:16;;;;;;;93.72;40.95;;;;;;;0.45;93.79;100534.22;1753842;80;22075;-84
2021/01/09 00:47:43;;;;;;;84.05;40.00;;;;;;;0.46;93.80;100535.87;1764404;80;21149;-84
2021/01/09 00:50:11;;;;;;;90.77;40.05;;;;;;;0.47;93.80;100536.25;1764934;80;21171;-84
2021/01/09 00:52:37;;;;;;;98.97;43.00;;;;;;;0.45;93.79;100526.34;1704256;84;21183;-84
2021/01/09 00:55:04;;;;;;;94.25;41.40;;;;;;;0.47;93.80;100534.95;1737172;82;21719;-83
2021/01/09 00:57:30;;;;;;;92.25;42.38;;;;;;;0.50;93.80;100535.20;1703088;84;21588;-84
2021/01/09 00:59:56;;;;;;;88.30;45.48;;;;;;;0.50;93.80;100536.05;1736991;82;21231;-83
2021/01/09 01:02:23;;;;;;;108.85;51.15;;;;;;;0.50;93.82;100538.67;1704260;84;21729;-84
2021/01/09 01:04:49;;;;;;;116.05;48.10;;;;;;;0.52;93.83;100537.73;1737198;82;21171;-83
2021/01/09 01:07:15;;;;;;;112.35;45.35;;;;;;;0.53;93.82;100538.11;1704338;84;21601;-83
2021/01/09 01:09:41;;;;;;;92.00;38.28;;;;;;;0.56;93.83;100543.15;1737059;82;21159;-83
2021/01/09 01:12:08;;;;;;;91.00;40.12;;;;;;;0.55;93.83;100550.17;1704482;84;21595;-83
2021/01/09 01:14:35;;;;;;;87.97;39.67;;;;;;;0.54;93.85;100552.89;1736672;82;21636;-83
2021/01/09 01:17:04;;;;;;;81.40;35.48;;;;;;;0.53;93.86;100548.61;1704437;84;21166;-84
2021/01/09 01:19:31;;;;;;;94.32;38.67;;;;;;;0.54;93.87;100554.20;1737031;82;21188;-83
2021/01/09 01:21:57;;;;;;;84.25;38.20;;;;;;;0.54;93.87;100560.76;1704144;84;21230;-83
2021/01/09 01:24:23;;;;;;;80.35;38.85;;;;;;;0.54;93.86;100558.98;1737057;82;21176;-83
2021/01/09 01:26:50;;;;;;;92.27;37.80;;;;;;;0.54;93.87;100560.76;1704315;84;21152;-83
2021/01/09 01:29:16;;;;;;;79.58;36.25;;;;;;;0.57;93.88;100560.55;1737051;82;21558;-83
2021/01/09 01:31:43;;;;;;;84.07;38.63;;;;;;;0.56;93.87;100566.77;1703934;84;21258;-83
2021/01/09 01:34:09;;;;;;;106.47;44.42;;;;;;;0.54;93.88;100559.45;1737207;82;21264;-83
2021/01/09 01:36:35;;;;;;;120.77;52.38;;;;;;;0.55;93.87;100570.32;1704228;84;21163;-83
2021/01/09 01:39:02;;;;;;;156.63;73.42;;;;;;;0.53;93.90;100570.91;1761794;80;21208;-84
2021/01/09 01:41:28;;;;;;;141.53;68.15;;;;;;;0.50;93.88;100568.84;1766825;81;21109;-84
2021/01/09 01:43:54;;;;;;;151.72;70.22;;;;;;;0.50;93.87;100567.53;1766702;81;21636;-83
2021/01/09 01:46:21;;;;;;;144.87;60.40;;;;;;;0.50;93.86;100570.16;1766736;81;21189;-84
2021/01/09 01:48:49;;;;;;;115.65;46.28;;;;;;;0.49;93.88;100569.77;1766539;81;21594;-84
2021/01/09 01:51:15;;;;;;;109.45;46.30;;;;;;;0.48;93.85;100573.36;1766803;81;21621;-83
2021/01/09 01:53:41;;;;;;;121.62;45.52;;;;;;;0.48;93.86;100575.14;1736696;81;21156;-84
2021/01/09 01:56:08;;;;;;;101.27;42.35;;;;;;;0.48;93.86;100574.67;1766786;80;21609;-84
2021/01/09 01:58:34;;;;;;;103.35;42.48;;;;;;;0.43;93.84;100575.44;1766597;81;21264;-83
2021/01/09 02:01:00;;;;;;;119.55;44.50;;;;;;;0.44;93.86;100573.19;1766650;81;21968;-83
2021/01/09 02:03:27;;;;;;;122.28;44.45;;;;;;;0.44;93.86;100576.28;1766740;81;21152;-83
2021/01/09 02:06:08;;;;;;;108.52;44.55;;;;;;;0.45;93.87;100574.03;1766397;81;21184;-83
2021/01/09 02:08:41;;;;;;;113.15;44.98;;;;;;;0.45;93.88;100581.44;1748421;81;21776;-83
2021/01/09 02:11:13;;;;;;;142.03;57.00;;;;;;;0.45;93.87;100576.19;1766728;81;22434;-83
2021/01/09 02:13:44;;;;;;;135.37;58.33;;;;;;;0.48;93.87;100583.01;1762005;81;21803;-83
2021/01/09 02:16:11;;;;;;;146.07;62.17;;;;;;;0.45;93.87;100581.91;1736668;81;21175;-83
2021/01/09 02:18:40;;;;;;;136.18;52.30;;;;;;;0.44;93.87;100584.99;1766353;81;21620;-83
2021/01/09 02:21:29;;;;;;;111.83;40.70;;;;;;;0.45;93.89;100581.44;1766873;80;21140;-83
2021/01/09 02:23:55;;;;;;;100.97;37.50;;;;;;;0.45;93.90;100588.47;1765999;80;21160;-83
2021/01/09 02:26:22;;;;;;;111.17;45.58;;;;;;;0.46;93.89;100590.97;1766662;81;21183;-83
2021/01/09 02:28:48;;;;;;;151.80;61.37;;;;;;;0.45;93.90;100586.69;1766666;81;21612;-84
2021/01/09 02:31:15;;;;;;;98.70;38.20;;;;;;;0.45;93.91;100585.84;1761804;81;21557;-84
2021/01/09 02:33:41;;;;;;;89.95;34.00;;;;;;;0.43;93.91;100587.70;1736667;81;21598;-84
2021/01/09 02:36:08;;;;;;;99.60;34.53;;;;;;;0.40;93.90;100596.63;1766283;81;21194;-83
2021/01/09 02:38:36;;;;;;;90.32;33.02;;;;;;;0.41;93.89;100586.52;1768280;80;21200;-83
2021/01/09 02:41:03;;;;;;;96.60;31.40;;;;;;;0.40;93.89;100591.38;1771980;81;21613;-84
2021/01/09 02:43:29;;;;;;;94.58;35.58;;;;;;;0.39;93.89;100584.44;1772372;81;21578;-84
2021/01/09 02:45:55;;;;;;;89.83;33.65;;;;;;;0.41;93.89;100590.45;1772183;81;21148;-83
2021/01/09 02:48:22;;;;;;;83.92;29.85;;;;;;;0.41;93.88;100590.45;1772217;81;21203;-83
2021/01/09 02:50:48;;;;;;;100.72;39.85;;;;;;;0.41;93.89;100585.66;1772047;81;21152;-83
2021/01/09 02:53:15;;;;;;;79.70;30.32;;;;;;;0.40;93.90;100591.38;1772119;80;21616;-83
2021/01/09 02:55:41;;;;;;;79.85;29.82;;;;;;;0.39;93.88;100586.22;1772427;80;21136;-83
2021/01/09 02:58:07;;;;;;;69.35;28.35;;;;;;;0.35;93.90;100592.14;1772403;81;21124;-83
2021/01/09 03:00:35;;;;;;;56.37;23.77;;;;;;;0.34;93.91;100591.79;1772557;81;22186;-83
2021/01/09 03:03:03;;;;;;;62.60;25.32;;;;;;;0.31;93.90;100597.23;1771656;81;21164;-83
2021/01/09 03:05:30;;;;;;;62.08;26.45;;;;;;;0.29;93.91;100600.41;1772354;80;21692;-83
2021/01/09 03:07:57;;;;;;;74.85;28.62;;;;;;;0.28;93.89;100602.66;1772150;81;21139;-83
2021/01/09 03:10:24;;;;;;;66.28;25.48;;;;;;;0.29;93.93;100600.41;1772185;81;21443;-83
2021/01/09 03:12:52;;;;;;;72.27;26.55;;;;;;;0.28;93.92;100597.41;1772457;81;21163;-83
2021/01/09 03:15:19;;;;;;;74.67;27.65;;;;;;;0.29;93.92;100608.28;1772239;81;21557;-83
2021/01/09 03:17:48;;;;;;;64.30;23.95;;;;;;;0.30;93.91;100602.11;1772407;81;21125;-83
2021/01/09 03:20:16;;;;;;;52.35;20.17;;;;;;;0.31;93.91;100599.86;1772491;81;21152;-83
2021/01/09 03:22:43;;;;;;;70.22;25.65;;;;;;;0.30;93.90;100603.42;1772239;81;21145;-82
2021/01/09 03:25:11;;;;;;;58.75;21.93;;;;;;;0.31;93.91;100602.48;1772090;81;21172;-83
2021/01/09 03:27:39;;;;;;;66.65;26.82;;;;;;;0.31;93.92;100604.27;1772021;80;21192;-83
2021/01/09 03:30:07;;;;;;;62.55;24.47;;;;;;;0.33;93.92;100607.14;1772275;81;21152;-84
2021/01/09 03:32:34;;;;;;;57.90;23.22;;;;;;;0.35;93.92;100603.94;1772024;80;21703;-83
2021/01/09 03:35:02;;;;;;;70.17;26.40;;;;;;;0.34;93.92;100607.53;1772512;81;21117;-83
2021/01/09 03:37:29;;;;;;;110.60;54.23;;;;;;;0.33;93.93;100609.77;1772134;81;21199;-84
2021/01/09 03:39:57;;;;;;;86.47;28.62;;;;;;;0.35;93.94;100617.05;1772208;81;21137;-83
2021/01/09 03:42:24;;;;;;;74.60;26.07;;;;;;;0.36;93.94;100616.13;1772419;81;21147;-83
2021/01/09 03:44:51;;;;;;;75.17;26.30;;;;;;;0.36;93.94;100612.66;1772138;81;21152;-84
2021/01/09 03:47:19;;;;;;;66.62;25.30;;;;;;;0.36;93.94;100616.13;1771784;81;21176;-84
2021/01/09 03:49:46;;;;;;;62.78;24.12;;;;;;;0.34;93.96;100621.95;1771945;81;21204;-83
2021/01/09 03:52:13;;;;;;;56.05;20.90;;;;;;;0.30;93.93;100629.64;1772163;81;21172;-83
2021/01/09 03:54:40;;;;;;;52.50;21.15;;;;;;;0.25;93.93;100626.46;1772385;81;21144;-84
2021/01/09 03:57:08;;;;;;;58.35;21.52;;;;;;;0.23;93.94;100627.05;1772431;81;21173;-83
2021/01/09 03:59:35;;;;;;;61.92;29.40;;;;;;;0.20;93.92;100634.27;1772212;81;21180;-83
2021/01/09 04:02:02;;;;;;;53.50;23.75;;;;;;;0.16;93.92;100634.94;1772550;81;21172;-83
2021/01/09 04:04:30;;;;;;;46.40;23.80;;;;;;;0.14;93.92;100635.48;1772282;81;21164;-83
2021/01/09 04:06:57;;;;;;;48.48;21.33;;;;;;;0.13;93.93;100644.31;1719157;81;21641;-83
2021/01/09 04:09:24;;;;;;;47.23;21.20;;;;;;;0.12;93.90;100640.00;1772375;81;21247;-82
2021/01/09 04:11:52;;;;;;;42.98;19.37;;;;;;;0.11;93.90;100642.70;1772195;80;21172;-82
2021/01/09 04:14:19;;;;;;;49.33;20.68;;;;;;;0.09;93.92;100640.20;1772562;81;21145;-82
2021/01/09 04:16:46;;;;;;;44.45;21.45;;;;;;;0.08;93.90;100646.37;1771986;81;21172;-83
2021/01/09 04:19:14;;;;;;;38.38;18.02;;;;;;;0.06;93.91;100644.33;1772160;81;21224;-83
2021/01/09 04:21:52;;;;;;;41.68;19.75;;;;;;;0.08;93.90;100642.44;1772190;81;21625;-83
2021/01/09 04:24:23;;;;;;;40.60;19.60;;;;;;;0.07;93.91;100644.67;1771991;81;21634;-82
2021/01/09 04:26:59;;;;;;;39.20;18.70;;;;;;;0.04;93.91;100646.19;1772612;81;21181;-82
2021/01/09 04:29:27;;;;;;;41.05;20.85;;;;;;;0.02;93.91;100647.23;1772100;81;21632;-83
2021/01/09 04:31:54;;;;;;;43.92;20.52;;;;;;;0.02;93.90;100655.09;1772545;80;21609;-83
2021/01/09 04:34:22;;;;;;;38.73;19.45;;;;;;;0.01;93.90;100651.63;1772502;80;21660;-83
2021/01/09 04:36:50;;;;;;;40.48;20.08;;;;;;;-0.02;93.89;100657.91;1772213;80;21720;-82
2021/01/09 04:39:17;;;;;;;45.05;19.80;;;;;;;-0.03;93.89;100659.31;1770227;81;21129;-83
2021/01/09 04:41:44;;;;;;;33.20;17.67;;;;;;;-0.03;93.88;100660.63;1766875;80;21156;-83
2021/01/09 04:44:12;;;;;;;38.80;19.62;;;;;;;-0.05;93.90;100662.05;1766738;81;21391;-83
2021/01/09 04:46:52;;;;;;;37.05;17.85;;;;;;;-0.05;93.87;100657.27;1766553;81;21181;-83
2021/01/09 04:49:21;;;;;;;;;;;;;;;-0.05;93.86;100665.13;1769418;81;21217;-82
2021/01/09 04:51:49;;;;;;;43.40;20.62;;;;;;;-0.07;93.88;100665.70;1766726;81;21082;-83
2021/01/09 04:54:18;;;;;;;36.88;18.17;;;;;;;-0.07;93.88;100669.64;1766758;80;21140;-83
2021/01/09 04:56:47;;;;;;;42.58;19.32;;;;;;;-0.07;93.86;100669.64;1766748;80;21164;-83
2021/01/09 04:59:16;;;;;;;44.20;19.37;;;;;;;-0.06;93.87;100672.61;1766414;81;21196;-82
2021/01/09 05:01:45;;;;;;;40.52;20.25;;;;;;;-0.06;93.87;100672.61;1766860;81;21145;-83
2021/01/09 05:04:16;;;;;;;59.20;30.20;;;;;;;-0.07;93.88;100680.94;1766808;80;21929;-83
2021/01/09 05:06:44;;;;;;;98.80;50.83;;;;;;;-0.08;93.88;100674.50;1766491;81;21192;-82
2021/01/09 05:09:13;;;;;;;56.55;26.65;;;;;;;-0.11;93.87;100675.54;1766779;80;21125;-83
2021/01/09 05:11:42;;;;;;;48.10;25.92;;;;;;;-0.08;93.89;100678.43;1766785;80;21129;-83
2021/01/09 05:14:09;;;;;;;77.67;43.02;;;;;;;-0.08;93.87;100679.74;1766866;80;21730;-83
2021/01/09 05:16:39;;;;;;;76.53;31.50;;;;;;;-0.09;93.87;100684.59;1766643;80;21156;-82
2021/01/09 05:19:08;;;;;;;59.30;24.32;;;;;;;-0.10;93.87;100681.59;1766938;80;21193;-83
2021/01/09 05:21:36;;;;;;;49.03;19.77;;;;;;;-0.10;93.87;100684.22;1766337;80;21173;-83
2021/01/09 05:24:08;;;;;;;41.10;20.60;;;;;;;-0.10;93.87;100689.46;1766552;81;21204;-83
2021/01/09 05:26:36;;;;;;;36.38;19.60;;;;;;;-0.11;93.88;100685.18;1766714;81;21589;-83
2021/01/09 05:29:05;;;;;;;41.73;22.13;;;;;;;-0.11;93.86;100693.05;1766395;80;21485;-83
2021/01/09 05:31:35;;;;;;;34.08;19.00;;;;;;;-0.14;93.87;100693.23;1766646;81;21172;-83
2021/01/09 05:34:04;;;;;;;37.98;19.80;;;;;;;-0.15;93.88;100689.77;1766535;81;21547;-84
2021/01/09 05:36:31;;;;;;;35.23;19.95;;;;;;;-0.16;93.86;100692.00;1766695;81;21578;-83
2021/01/09 05:39:00;;;;;;;39.35;20.55;;;;;;;-0.16;93.86;100698.55;1766147;80;21688;-83
2021/01/09 05:41:27;;;;;;;45.03;27.15;;;;;;;-0.16;93.87;100697.25;1736450;81;21211;-82
2021/01/09 05:44:08;;;;;;;51.35;31.73;;;;;;;-0.17;93.85;100706.03;1766533;81;21187;-83
2021/01/09 05:46:38;;;;;;;54.65;34.63;;;;;;;-0.16;93.85;100704.27;1766720;81;21582;-82
2021/01/09 05:49:07;;;;;;;52.13;31.80;;;;;;;-0.17;93.86;100715.67;1766839;80;21177;-83
2021/01/09 05:51:41;;;;;;;42.30;24.20;;;;;;;-0.17;93.85;100710.43;1766523;80;21129;-84
2021/01/09 05:54:08;;;;;;;38.78;23.30;;;;;;;-0.17;93.85;100714.36;1737389;81;21197;-83
2021/01/09 05:56:39;;;;;;;38.73;23.05;;;;;;;-0.19;93.83;100712.31;1766589;80;21172;-83
2021/01/09 05:59:07;;;;;;;41.70;22.58;;;;;;;-0.20;93.83;100718.48;1766693;81;21141;-83
2021/01/09 06:01:35;;;;;;;38.95;22.13;;;;;;;-0.24;93.84;100714.36;1766773;80;21149;-83
2021/01/09 06:04:13;;;;;;;39.05;21.75;;;;;;;-0.21;93.84;100727.30;1765636;80;21160;-83
2021/01/09 06:07:08;;;;;;;37.20;18.47;;;;;;;-0.22;93.83;100726.92;1766652;81;21147;-83
2021/01/09 06:09:53;;;;;;;57.20;26.20;;;;;;;-0.22;93.85;100738.72;1762474;80;21868;-83
2021/01/09 06:12:21;;;;;;;73.33;31.82;;;;;;;-0.24;93.84;100739.25;1758879;81;21160;-83
2021/01/09 06:14:49;;;;;;;68.30;32.70;;;;;;;-0.23;93.85;100742.27;1766515;81;21148;-82
2021/01/09 06:17:17;;;;;;;81.82;42.70;;;;;;;-0.24;93.84;100743.19;1766209;81;21196;-83
2021/01/09 06:19:44;;;;;;;78.72;45.25;;;;;;;-0.24;93.84;100746.66;1766738;80;21968;-83
2021/01/09 06:22:12;;;;;;;85.55;48.15;;;;;;;-0.22;93.83;100754.44;1766453;80;21581;-83
2021/01/09 06:24:40;;;;;;;56.95;31.37;;;;;;;-0.22;93.83;100754.44;1736506;81;21624;-83
2021/01/09 06:27:10;;;;;;;49.75;29.05;;;;;;;-0.22;93.80;100759.68;1766650;81;21571;-84
2021/01/09 06:29:37;;;;;;;48.30;26.82;;;;;;;-0.22;93.78;100765.77;1736880;81;21216;-83
2021/01/09 06:32:05;;;;;;;47.58;26.97;;;;;;;-0.20;93.81;100761.72;1736709;81;21171;-83
2021/01/09 06:34:32;;;;;;;55.25;31.27;;;;;;;-0.19;93.81;100762.11;1766491;80;21137;-83
2021/01/09 06:37:04;;;;;;;54.88;30.27;;;;;;;-0.19;93.81;100762.95;1766716;80;21164;-83
2021/01/09 06:39:36;;;;;;;49.60;29.37;;;;;;;-0.18;93.81;100767.27;1766124;81;21601;-83
2021/01/09 06:42:05;;;;;;;58.48;32.08;;;;;;;-0.16;93.82;100765.85;1766500;80;21211;-83
2021/01/09 06:44:33;;;;;;;67.27;32.42;;;;;;;-0.15;93.81;100770.16;1766809;81;21964;-83
2021/01/09 06:47:00;;;;;;;71.55;31.90;;;;;;;-0.14;93.81;100771.86;1766421;80;21645;-83
2021/01/09 06:49:27;;;;;;;55.60;27.40;;;;;;;-0.12;93.83;100779.99;1761614;80;21125;-83
2021/01/09 06:54:43;;;;;;;44.98;24.10;;;;;;;-0.04;93.83;100779.53;1815372;77;22287;-83
2021/01/09 06:57:14;;;;;;;52.38;29.52;;;;;;;-0.09;93.82;100778.95;1787968;79;21213;-83
2021/01/09 06:59:45;;;;;;;59.10;34.38;;;;;;;-0.09;93.83;100779.80;1786714;80;21255;-83
2021/01/09 07:02:27;;;;;;;43.80;24.00;;;;;;;-0.10;93.85;100777.27;1786618;80;21060;-83
2021/01/09 07:05:03;;;;;;;48.92;21.40;;;;;;;-0.11;93.85;100784.31;1787889;80;21155;-83
2021/01/09 07:07:37;;;;;;;45.48;24.00;;;;;;;-0.13;93.85;100782.70;1788055;80;21167;-83
2021/01/09 07:10:22;;;;;;;63.20;30.60;;;;;;;-0.14;93.84;100783.66;1782119;80;21108;-83
2021/01/09 07:12:59;;;;;;;55.58;25.62;;;;;;;-0.13;93.86;100786.63;1728523;81;21139;-84
2021/01/09 07:15:26;;;;;;;45.65;22.13;;;;;;;-0.13;93.85;100786.16;1726980;81;21199;-84
2021/01/09 07:17:59;;;;;;;60.28;26.90;;;;;;;-0.14;93.83;100787.59;1727307;80;21159;-84
2021/01/09 07:20:47;;;;;;;58.13;23.22;;;;;;;-0.12;93.85;100787.02;1756645;81;21191;-84
2021/01/09 07:23:16;;;;;;;58.60;30.75;;;;;;;-0.12;93.84;100787.02;1756497;81;21155;-83
2021/01/09 07:25:45;;;;;;;52.10;29.82;;;;;;;-0.12;93.83;100791.79;1756304;81;21167;-83
2021/01/09 07:28:15;;;;;;;60.10;29.87;;;;;;;-0.13;93.81;100804.97;1724475;83;21211;-84
2021/01/09 07:30:41;;;;;;;45.05;22.75;;;;;;;-0.12;93.83;100803.58;1722577;83;21212;-84
2021/01/09 07:33:10;;;;;;;38.13;19.20;;;;;;;-0.11;93.82;100805.74;1692159;84;21180;-84
2021/01/09 07:35:39;;;;;;;33.95;18.25;;;;;;;-0.10;93.84;100804.78;1685918;84;21125;-84
2021/01/09 07:38:06;;;;;;;31.20;16.87;;;;;;;-0.12;93.85;100806.66;1704252;82;22075;-83
2021/01/09 07:40:45;;;;;;;30.25;17.27;;;;;;;-0.12;93.84;100811.91;1708700;83;21196;-83
2021/01/09 07:43:47;;;;;;;33.83;16.90;;;;;;;-0.12;93.84;100818.46;1708289;84;21188;-84
2021/01/09 07:46:30;;;;;;;34.10;16.90;;;;;;;-0.10;93.82;100821.82;1702446;84;21629;-84
2021/01/09 07:49:00;;;;;;;30.55;17.02;;;;;;;-0.08;93.83;100826.06;1702760;84;21128;-84
2021/01/09 07:51:53;;;;;;;32.53;16.75;;;;;;;-0.07;93.83;100829.53;1702246;84;22148;-83
2021/01/09 07:54:44;;;;;;;35.73;18.62;;;;;;;-0.07;93.83;100829.53;1705239;82;21208;-83
2021/01/09 07:57:22;;;;;;;34.05;19.32;;;;;;;-0.07;93.84;100832.15;1714126;83;21163;-84
2021/01/09 08:00:03;;;;;;;44.33;19.37;;;;;;;-0.08;93.85;100829.14;1720395;83;21201;-84
2021/01/09 08:02:41;;;;;;;28.83;16.23;;;;;;;-0.07;93.83;100836.08;1721041;82;21184;-84
2021/01/09 08:05:19;;;;;;;27.07;14.13;;;;;;;-0.09;93.82;100834.00;1720538;83;21200;-84
2021/01/09 08:07:50;;;;;;;37.50;17.98;;;;;;;-0.10;93.82;100832.30;1720691;83;21172;-84
2021/01/09 08:10:27;;;;;;;30.27;17.12;;;;;;;-0.09;93.81;100841.86;1720822;82;21212;-83
2021/01/09 08:13:05;;;;;;;33.40;18.52;;;;;;;-0.07;93.81;100841.33;1720471;82;21184;-83
2021/01/09 08:15:33;;;;;;;32.55;19.98;;;;;;;-0.05;93.80;100848.61;1720925;82;21123;-83
2021/01/09 08:18:05;;;;;;;43.98;21.87;;;;;;;-0.03;93.80;100851.97;1720766;82;21196;-84
2021/01/09 08:20:31;;;;;;;39.70;21.50;;;;;;;0.00;93.81;100859.69;1720222;83;21151;-83
2021/01/09 08:23:04;;;;;;;41.60;23.85;;;;;;;0.00;93.83;100854.44;1720732;83;21223;-83
2021/01/09 08:25:36;;;;;;;42.10;22.07;;;;;;;-0.01;93.83;100855.37;1711024;83;21202;-83
2021/01/09 08:28:05;;;;;;;40.92;21.50;;;;;;;-0.01;93.83;100859.30;1671396;83;21182;-83
2021/01/09 08:30:38;;;;;;;32.93;16.47;;;;;;;-0.02;93.82;100858.91;1698584;84;21569;-83
2021/01/09 08:33:12;;;;;;;35.85;18.80;;;;;;;-0.01;93.83;100865.39;1699442;83;21258;-84
2021/01/09 08:35:51;;;;;;;40.67;21.33;;;;;;;-0.02;93.81;100865.00;1699588;84;21193;-83
2021/01/09 08:38:18;;;;;;;36.90;20.55;;;;;;;-0.03;93.81;100863.77;1699517;84;21253;-83
2021/01/09 08:40:45;;;;;;;32.95;16.77;;;;;;;0.00;93.81;100864.92;1698999;83;21147;-82
2021/01/09 08:43:13;;;;;;;37.65;19.37;;;;;;;0.00;93.80;100866.23;1699403;83;22176;-83
2021/01/09 08:45:50;;;;;;;39.38;20.92;;;;;;;-0.01;93.82;100871.94;1699744;84;21204;-84
2021/01/09 08:48:27;;;;;;;37.00;22.30;;;;;;;-0.02;93.79;100875.48;1699536;83;21199;-85
2021/01/09 08:51:07;;;;;;;35.03;18.87;;;;;;;0.02;93.80;100871.37;1698853;84;21216;-84
2021/01/09 08:54:02;;;;;;;40.98;22.52;;;;;;;0.00;93.79;100878.03;1672240;85;21179;-85
2021/01/09 08:56:29;;;;;;;52.43;30.45;;;;;;;-0.02;93.78;100880.73;1673303;84;21229;-85
2021/01/09 08:59:05;;;;;;;95.83;56.58;;;;;;;-0.01;93.81;100885.05;1701244;84;21190;-85
2021/01/09 09:01:41;;;;;;;39.35;21.68;;;;;;;0.01;93.80;100882.31;1701829;84;21579;-85
2021/01/09 09:04:08;;;;;;;33.48;19.55;;;;;;;0.02;93.79;100887.95;1701399;83;21232;-85
2021/01/09 09:06:39;;;;;;;33.20;19.32;;;;;;;0.02;93.79;100891.88;1701881;84;21161;-84
2021/01/09 09:09:05;;;;;;;127.10;59.25;;;;;;;0.03;93.80;100894.89;1721155;82;21219;-84
2021/01/09 09:11:32;;;;;;;86.45;45.05;;;;;;;0.04;93.79;100895.23;1696013;84;21177;-84
2021/01/09 09:14:08;;;;;;;64.27;33.40;;;;;;;0.07;93.79;100897.67;1713585;82;21210;-85
2021/01/09 09:16:36;;;;;;;32.65;19.57;;;;;;;0.09;93.80;100897.14;1706483;84;21241;-85
2021/01/09 09:19:17;;;;;;;46.70;23.38;;;;;;;0.10;93.79;100898.83;1706198;84;21556;-86
2021/01/09 09:21:48;;;;;;;41.95;23.95;;;;;;;0.11;93.79;100897.87;1677988;85;22054;-83
2021/01/09 09:24:16;;;;;;;39.70;20.88;;;;;;;0.12;93.79;100900.88;1704478;84;21630;-84
2021/01/09 09:26:44;;;;;;;39.80;19.62;;;;;;;0.12;93.78;100898.72;1706918;83;21143;-86
2021/01/09 09:29:13;;;;;;;41.48;18.23;;;;;;;0.08;93.77;100899.38;1721897;83;21168;-85
2021/01/09 09:31:40;;;;;;;31.62;15.85;;;;;;;0.07;93.78;100895.05;1691418;84;21218;-86
2021/01/09 09:34:12;;;;;;;32.60;17.60;;;;;;;0.07;93.78;100895.05;1692672;83;21219;-85
2021/01/09 09:36:55;;;;;;;33.20;18.32;;;;;;;0.09;93.78;100891.89;1692711;83;21567;-84
2021/01/09 09:39:23;;;;;;;46.70;20.57;;;;;;;0.14;93.81;100893.75;1690796;84;21235;-84
2021/01/09 09:41:57;;;;;;;31.73;16.87;;;;;;;0.17;93.79;100888.35;1691547;84;21216;-84
2021/01/09 09:44:41;;;;;;;37.10;19.65;;;;;;;0.22;93.81;100884.97;1691378;84;21612;-85
2021/01/09 09:47:23;;;;;;;47.73;24.02;;;;;;;0.26;93.80;100882.55;1691144;84;21225;-84
2021/01/09 09:49:49;;;;;;;45.65;22.20;;;;;;;0.31;93.78;100875.25;1691546;84;21201;-85
2021/01/09 09:52:20;;;;;;;39.45;20.45;;;;;;;0.35;93.79;100876.73;1690475;83;21481;-84
2021/01/09 09:54:51;;;;;;;39.75;19.70;;;;;;;0.36;93.80;100880.20;1663104;85;21267;-84
2021/01/09 09:57:23;;;;;;;38.92;20.37;;;;;;;0.36;93.79;100877.58;1675528;83;21197;-84
2021/01/09 10:00:11;;;;;;;41.42;19.25;;;;;;;0.35;93.81;100875.91;1691302;84;21248;-85
2021/01/09 10:02:37;;;;;;;54.77;23.85;;;;;;;0.35;93.79;100869.35;1721588;82;21612;-84
2021/01/09 10:05:13;;;;;;;68.62;30.02;;;;;;;0.38;93.81;100866.54;1694076;84;21190;-84
2021/01/09 10:07:40;;;;;;;106.10;49.53;;;;;;;0.38;93.81;100867.84;1694173;84;21212;-84
2021/01/09 10:10:17;;;;;;;60.78;30.27;;;;;;;0.40;93.78;100870.74;1694415;84;21166;-84
2021/01/09 10:12:56;;;;;;;37.65;20.43;;;;;;;0.46;93.80;100872.98;1694266;83;22073;-84
2021/01/09 10:15:23;;;;;;;46.48;27.90;;;;;;;0.47;93.80;100870.74;1694408;84;21176;-84
2021/01/09 10:17:56;;;;;;;40.70;23.80;;;;;;;0.52;93.79;100870.94;1693975;84;21172;-83
2021/01/09 10:20:23;;;;;;;54.73;30.68;;;;;;;0.54;93.80;100869.05;1693724;84;21734;-84
2021/01/09 10:22:50;;;;;;;57.73;32.70;;;;;;;0.57;93.80;100878.03;1693912;84;21165;-84
2021/01/09 10:25:16;;;;;;;45.95;22.67;;;;;;;0.61;93.79;100884.78;1693964;84;21225;-84
2021/01/09 10:27:42;;;;;;;50.05;23.52;;;;;;;0.63;93.78;100882.46;1693683;84;21152;-83
2021/01/09 10:30:10;;;;;;;40.75;20.82;;;;;;;0.64;93.78;100876.72;1694017;84;21149;-84
2021/01/09 10:32:36;;;;;;;44.90;21.75;;;;;;;0.64;93.78;100880.66;1692203;84;21589;-83
2021/01/09 10:35:04;;;;;;;42.62;22.37;;;;;;;0.63;93.77;100877.22;1693628;84;21858;-84
2021/01/09 10:37:30;;;;;;;50.38;25.48;;;;;;;0.63;93.76;100876.37;1693496;84;22084;-84
2021/01/09 10:39:57;;;;;;;47.33;23.65;;;;;;;0.65;93.76;100867.91;1694279;84;21195;-84
2021/01/09 10:42:23;;;;;;;58.45;28.65;;;;;;;0.66;93.74;100866.98;1694068;84;21216;-84
2021/01/09 10:44:49;;;;;;;43.02;23.47;;;;;;;0.65;93.74;100874.48;1647246;85;21196;-84
2021/01/09 10:47:16;;;;;;;48.85;24.40;;;;;;;0.66;93.72;100871.77;1679787;84;21144;-84
2021/01/09 10:49:42;;;;;;;66.15;36.05;;;;;;;0.67;93.71;100869.99;1693845;83;22064;-84
2021/01/09 10:52:08;;;;;;;66.87;35.65;;;;;;;0.69;93.70;100874.66;1694020;83;21167;-84
2021/01/09 10:54:35;;;;;;;69.87;37.95;;;;;;;0.70;93.70;100873.27;1695281;84;21483;-84
2021/01/09 10:57:01;;;;;;;46.83;24.67;;;;;;;0.70;93.70;100874.58;1729626;82;21575;-85
2021/01/09 10:59:27;;;;;;;44.23;21.93;;;;;;;0.70;93.69;100875.05;1699308;84;21703;-85
2021/01/09 11:01:57;;;;;;;46.42;24.23;;;;;;;0.71;93.68;100876.25;1699632;83;21214;-85
2021/01/09 11:04:24;;;;;;;50.73;25.77;;;;;;;0.70;93.67;100871.95;1729576;82;21207;-86
2021/01/09 11:06:53;;;;;;;58.48;28.83;;;;;;;0.69;93.68;100875.98;1724471;82;21203;-84
2021/01/09 11:09:19;;;;;;;46.77;23.52;;;;;;;0.68;93.67;100872.97;1673330;82;21220;-85
2021/01/09 11:11:49;;;;;;;47.90;25.40;;;;;;;0.71;93.67;100871.46;1720256;82;21543;-85
2021/01/09 11:14:15;;;;;;;44.30;22.87;;;;;;;0.72;93.67;100867.91;1718979;82;21161;-84
2021/01/09 11:16:41;;;;;;;47.50;24.90;;;;;;;0.75;93.65;100871.64;1719634;82;21219;-85
2021/01/09 11:19:09;;;;;;;49.05;23.50;;;;;;;0.79;93.66;100867.90;1726436;83;21187;-82
2021/01/09 11:21:37;;;;;;;67.82;29.48;;;;;;;0.79;93.66;100869.20;1725248;82;21588;-82
2021/01/09 11:24:04;;;;;;;54.77;26.33;;;;;;;0.79;93.65;100877.93;1697417;83;22076;-82
2021/01/09 11:26:31;;;;;;;67.50;33.00;;;;;;;0.76;93.66;100868.09;1697267;83;21289;-84
2021/01/09 11:28:57;;;;;;;68.37;40.10;;;;;;;0.72;93.65;100871.84;1697916;84;21743;-85